createdAt,value
2019-05-21T00:01:27.575Z,96911.60
2019-05-21T00:03:55.881Z,96915.52
2019-05-21T00:06:24.226Z,96908.75
2019-05-21T00:08:52.811Z,96911.30
2019-05-21T00:11:21.106Z,96911.67
2019-05-21T00:13:49.439Z,96915.08
2019-05-21T00:16:17.745Z,96908.28
2019-05-21T00:18:46.076Z,96910.61
2019-05-21T00:21:14.425Z,96910.61
2019-05-21T00:23:42.780Z,96916.64
2019-05-21T00:26:11.077Z,96919.09
2019-05-21T00:28:39.187Z,96916.20
2019-05-21T00:31:44.123Z,96916.42
2019-05-21T00:34:49.743Z,96915.20
2019-05-21T00:37:54.404Z,96916.16
2019-05-21T00:40:59.287Z,96916.93
2019-05-21T00:43:39.032Z,96919.49
2019-05-21T00:46:07.560Z,96920.02
2019-05-21T00:48:35.834Z,96919.91
2019-05-21T00:51:04.736Z,96932.50
2019-05-21T00:53:33.041Z,96922.39
2019-05-21T00:56:01.343Z,96925.47
2019-05-21T00:58:29.663Z,96930.30
2019-05-21T01:00:57.959Z,96930.74
2019-05-21T01:03:26.619Z,96932.13
2019-05-21T01:05:54.915Z,96933.08
2019-05-21T01:08:23.237Z,96932.28
2019-05-21T01:10:51.617Z,96939.59
2019-05-21T01:13:20.003Z,96940.11
2019-05-21T01:15:48.298Z,96933.70
2019-05-21T01:18:16.801Z,96945.26
2019-05-21T01:20:45.146Z,96947.10
2019-05-21T01:23:13.876Z,96939.57
2019-05-21T01:25:42.179Z,96941.19
2019-05-21T01:28:10.503Z,96946.24
2019-05-21T01:30:38.798Z,96938.41
2019-05-21T01:33:07.556Z,96935.63
2019-05-21T01:35:35.887Z,96934.53
2019-05-21T01:38:04.251Z,96933.10
2019-05-21T01:40:32.640Z,96927.55
2019-05-21T01:43:03.362Z,96927.94
2019-05-21T01:45:31.272Z,96920.95
2019-05-21T01:47:59.568Z,96922.52
2019-05-21T01:50:27.892Z,96922.91
2019-05-21T01:52:56.184Z,96918.38
2019-05-21T01:55:24.501Z,96915.66
2019-05-21T01:57:52.797Z,96913.49
2019-05-21T02:00:21.322Z,96909.70
2019-05-21T02:02:49.571Z,96914.62
2019-05-21T02:05:32.189Z,96910.58
2019-05-21T02:07:48.062Z,96907.24
2019-05-21T02:10:16.718Z,96914.06
2019-05-21T02:12:45.391Z,96909.16
2019-05-21T02:15:14.423Z,96904.50
2019-05-21T02:17:42.743Z,96915.33
2019-05-21T02:20:11.514Z,96913.77
2019-05-21T02:22:39.916Z,96921.37
2019-05-21T02:25:08.650Z,96925.57
2019-05-21T02:27:37.007Z,96930.63
2019-05-21T02:30:09.462Z,96926.41
2019-05-21T02:32:37.942Z,96934.44
2019-05-21T02:35:07.183Z,96938.49
2019-05-21T02:37:35.552Z,96933.20
2019-05-21T02:40:05.305Z,96939.39
2019-05-21T02:42:33.653Z,96938.03
2019-05-21T02:45:02.009Z,96941.77
2019-05-21T02:47:30.524Z,96935.84
2019-05-21T02:49:59.217Z,96936.78
2019-05-21T02:52:27.514Z,96942.19
2019-05-21T02:54:55.811Z,96945.78
2019-05-21T02:57:25.775Z,96941.98
2019-05-21T02:59:56.156Z,96939.22
2019-05-21T03:02:26.548Z,96947.23
2019-05-21T03:04:54.840Z,96949.16
2019-05-21T03:07:25.522Z,96942.39
2019-05-21T03:09:53.636Z,96943.11
2019-05-21T03:12:21.948Z,96942.88
2019-05-21T03:14:50.251Z,96936.90
2019-05-21T03:17:18.590Z,96936.61
2019-05-21T03:19:46.936Z,96939.31
2019-05-21T03:22:15.269Z,96941.39
2019-05-21T03:24:43.590Z,96934.30
2019-05-21T03:27:11.880Z,96951.84
2019-05-21T03:29:40.272Z,96950.37
2019-05-21T03:32:08.910Z,96947.81
2019-05-21T03:34:37.268Z,96954.24
2019-05-21T03:37:05.941Z,96959.95
2019-05-21T03:39:34.271Z,96956.97
2019-05-21T03:42:02.576Z,96957.81
2019-05-21T03:44:30.945Z,96964.48
2019-05-21T03:46:59.261Z,96964.98
2019-05-21T03:49:27.847Z,96961.52
2019-05-21T03:51:56.165Z,96959.84
2019-05-21T03:54:24.624Z,96957.71
2019-05-21T03:56:52.960Z,96961.98
2019-05-21T03:59:21.734Z,96961.01
2019-05-21T04:01:51.494Z,96958.53
2019-05-21T04:04:19.808Z,96962.95
2019-05-21T04:06:51.751Z,96964.03
2019-05-21T04:09:18.480Z,96962.34
2019-05-21T04:11:46.778Z,96970.58
2019-05-21T04:14:16.719Z,96965.33
2019-05-21T04:16:46.685Z,96967.34
2019-05-21T04:19:19.075Z,96966.23
2019-05-21T04:21:47.392Z,96967.61
2019-05-21T04:24:15.688Z,96968.41
2019-05-21T04:26:44.216Z,96963.08
2019-05-21T04:29:12.586Z,96971.25
2019-05-21T04:31:40.906Z,96973.20
2019-05-21T04:34:09.201Z,96977.89
2019-05-21T04:36:37.864Z,96978.40
2019-05-21T04:39:07.002Z,96974.87
2019-05-21T04:41:35.365Z,96978.65
2019-05-21T04:44:03.747Z,96988.08
2019-05-21T04:46:32.403Z,96986.02
2019-05-21T04:49:00.726Z,96979.96
2019-05-21T04:51:29.031Z,96980.48
2019-05-21T04:53:57.857Z,96981.55
2019-05-21T04:56:26.320Z,96981.91
2019-05-21T04:58:55.038Z,96980.84
2019-05-21T05:01:23.324Z,96988.27
2019-05-21T05:03:51.687Z,96982.47
2019-05-21T05:06:20.390Z,96973.61
2019-05-21T05:08:48.697Z,96989.68
2019-05-21T05:11:17.075Z,96989.30
2019-05-21T05:13:45.448Z,96994.09
2019-05-21T05:16:13.774Z,96994.33
2019-05-21T05:18:42.075Z,96995.80
2019-05-21T05:21:10.393Z,96995.81
2019-05-21T05:23:38.726Z,96998.05
2019-05-21T05:26:07.061Z,97000.56
2019-05-21T05:28:35.377Z,97000.14
2019-05-21T05:31:03.681Z,97002.35
2019-05-21T05:33:32.430Z,97001.02
2019-05-21T05:36:00.747Z,97009.72
2019-05-21T05:38:29.340Z,97012.52
2019-05-21T05:40:57.654Z,97018.75
2019-05-21T05:43:26.311Z,97019.86
2019-05-21T05:45:54.702Z,97022.03
2019-05-21T05:48:23.390Z,97021.83
2019-05-21T05:50:56.052Z,97027.66
2019-05-21T05:53:24.420Z,97024.67
2019-05-21T05:55:52.718Z,97026.38
2019-05-21T05:58:21.087Z,97027.20
2019-05-21T06:00:49.415Z,97037.12
2019-05-21T06:03:17.749Z,97038.08
2019-05-21T06:05:46.045Z,97029.15
2019-05-21T06:08:14.735Z,97029.86
2019-05-21T06:10:43.129Z,97029.81
2019-05-21T06:13:11.446Z,97040.08
2019-05-21T06:15:40.084Z,97036.80
2019-05-21T06:18:08.405Z,97018.58
2019-05-21T06:20:36.708Z,97040.98
2019-05-21T06:23:05.208Z,97041.28
2019-05-21T06:25:33.505Z,97037.71
2019-05-21T06:28:01.798Z,97038.27
2019-05-21T06:30:30.123Z,97040.89
2019-05-21T06:32:58.450Z,97041.32
2019-05-21T06:35:27.142Z,97042.16
2019-05-21T06:37:55.445Z,97045.18
2019-05-21T06:40:23.837Z,97045.77
2019-05-21T06:42:52.155Z,97046.29
2019-05-21T06:45:23.185Z,97048.80
2019-05-21T06:47:51.487Z,97050.08
2019-05-21T06:50:19.798Z,97049.62
2019-05-21T06:52:48.141Z,97052.92
2019-05-21T06:55:16.789Z,97057.20
2019-05-21T06:57:45.904Z,97055.10
2019-05-21T07:00:14.596Z,97057.06
2019-05-21T07:02:43.010Z,97058.55
2019-05-21T07:05:11.448Z,97055.37
2019-05-21T07:07:39.742Z,97063.70
2019-05-21T07:10:08.499Z,97069.92
2019-05-21T07:12:37.167Z,97066.57
2019-05-21T07:15:07.117Z,97071.31
2019-05-21T07:17:35.484Z,97069.28
2019-05-21T07:20:07.944Z,97073.81
2019-05-21T07:22:36.369Z,97074.47
2019-05-21T07:25:06.567Z,97076.19
2019-05-21T07:27:35.030Z,97072.53
2019-05-21T07:30:04.301Z,97078.41
2019-05-21T07:32:32.947Z,97088.59
2019-05-21T07:35:01.317Z,97088.59
2019-05-21T07:37:29.722Z,97095.80
2019-05-21T07:39:58.380Z,97103.49
2019-05-21T07:42:26.701Z,97104.72
2019-05-21T07:44:55.354Z,97107.62
2019-05-21T07:47:23.744Z,97109.05
2019-05-21T07:49:52.106Z,97108.83
2019-05-21T07:52:20.449Z,97107.05
2019-05-21T07:54:48.984Z,97104.11
2019-05-21T07:57:17.288Z,97110.71
2019-05-21T07:59:45.616Z,97119.34
2019-05-21T08:02:13.967Z,97123.16
2019-05-21T08:04:42.303Z,97120.69
2019-05-21T08:07:10.667Z,97121.94
2019-05-21T08:09:39.060Z,97111.53
2019-05-21T08:12:34.423Z,97129.53
2019-05-21T08:14:37.799Z,97128.41
2019-05-21T08:17:06.169Z,97130.90
2019-05-21T08:19:34.570Z,97130.27
2019-05-21T08:22:02.859Z,97134.14
2019-05-21T08:24:31.158Z,97134.58
2019-05-21T08:26:59.491Z,97139.12
2019-05-21T08:29:27.771Z,97140.80
2019-05-21T08:31:57.051Z,97145.83
2019-05-21T08:34:25.507Z,97148.20
2019-05-21T08:36:53.829Z,97149.78
2019-05-21T08:39:28.881Z,97157.05
2019-05-21T08:41:52.502Z,97158.22
2019-05-21T08:44:20.921Z,97157.99
2019-05-21T08:46:49.261Z,97158.59
2019-05-21T08:49:17.828Z,97160.80
2019-05-21T08:51:46.132Z,97165.05
2019-05-21T08:54:16.128Z,97168.81
2019-05-21T08:56:44.552Z,97168.06
2019-05-21T08:59:12.869Z,97174.41
2019-05-21T09:01:41.239Z,97169.39
2019-05-21T09:04:10.129Z,97176.08
2019-05-21T09:06:38.427Z,97184.11
2019-05-21T09:09:07.012Z,97180.89
2019-05-21T09:11:35.583Z,97195.28
2019-05-21T09:14:04.554Z,97187.05
2019-05-21T09:16:33.443Z,97187.98
2019-05-21T09:19:02.043Z,97197.73
2019-05-21T09:21:30.368Z,97203.15
2019-05-21T09:23:58.660Z,97196.84
2019-05-21T09:26:27.318Z,97203.95
2019-05-21T09:28:55.670Z,97209.79
2019-05-21T09:31:24.368Z,97215.49
2019-05-21T09:33:52.662Z,97216.91
2019-05-21T09:36:20.976Z,97224.34
2019-05-21T09:38:49.272Z,97224.22
2019-05-21T09:41:17.589Z,97230.47
2019-05-21T09:43:45.887Z,97230.20
2019-05-21T09:46:14.292Z,97235.74
2019-05-21T09:48:42.939Z,97240.22
2019-05-21T09:51:19.472Z,97243.05
2019-05-21T09:53:41.346Z,97251.83
2019-05-21T09:56:27.140Z,97246.21
2019-05-21T09:58:57.681Z,97263.56
2019-05-21T10:01:27.679Z,97261.56
2019-05-21T10:03:57.463Z,97265.47
2019-05-21T10:06:25.976Z,97259.14
2019-05-21T10:08:54.304Z,97272.08
2019-05-21T10:11:22.608Z,97274.14
2019-05-21T10:13:50.930Z,97278.31
2019-05-21T10:16:19.294Z,97279.27
2019-05-21T10:18:47.638Z,97281.45
2019-05-21T10:21:15.927Z,97282.19
2019-05-21T10:23:44.332Z,97289.56
2019-05-21T10:26:12.732Z,97290.52
2019-05-21T10:28:41.096Z,97291.19
2019-05-21T10:31:09.846Z,97285.13
2019-05-21T10:33:38.162Z,97285.55
2019-05-21T10:36:06.773Z,97302.11
2019-05-21T10:38:35.140Z,97304.70
2019-05-21T10:41:03.595Z,97301.41
2019-05-21T10:43:32.320Z,97289.85
2019-05-21T10:46:00.622Z,97310.09
2019-05-21T10:48:29.081Z,97309.78
2019-05-21T10:50:57.378Z,97320.89
2019-05-21T10:53:25.764Z,97320.83
2019-05-21T10:55:54.080Z,97332.57
2019-05-21T10:58:22.545Z,97324.80
2019-05-21T11:00:52.549Z,97331.83
2019-05-21T11:03:38.660Z,97318.78
2019-05-21T11:06:09.973Z,97328.41
2019-05-21T11:08:37.261Z,97335.38
2019-05-21T11:11:05.938Z,97336.05
2019-05-21T11:13:34.614Z,97339.12
2019-05-21T11:16:03.036Z,97338.59
2019-05-21T11:18:31.300Z,97338.56
2019-05-21T11:20:59.957Z,97339.89
2019-05-21T11:23:28.424Z,97343.08
2019-05-21T11:25:56.722Z,97358.87
2019-05-21T11:28:25.037Z,97358.39
2019-05-21T11:30:53.510Z,97335.67
2019-05-21T11:33:21.901Z,97363.82
2019-05-21T11:35:50.268Z,97363.84
2019-05-21T11:38:18.562Z,97370.11
2019-05-21T11:40:50.771Z,97376.85
2019-05-21T11:43:17.000Z,97380.38
2019-05-21T11:45:45.389Z,97381.22
2019-05-21T11:48:13.685Z,97391.26
2019-05-21T11:50:42.084Z,97408.64
2019-05-21T11:53:10.385Z,97389.03
2019-05-21T11:55:38.716Z,97393.08
2019-05-21T11:58:07.017Z,97394.55
2019-05-21T12:00:35.451Z,97385.06
2019-05-21T12:03:03.921Z,97402.00
2019-05-21T12:05:32.481Z,97403.64
2019-05-21T12:08:00.888Z,97403.47
2019-05-21T12:10:29.249Z,97409.67
2019-05-21T12:12:57.545Z,97416.45
2019-05-21T12:15:26.207Z,97408.80
2019-05-21T12:17:54.889Z,97412.87
2019-05-21T12:20:35.921Z,97407.88
2019-05-21T12:22:54.003Z,97426.98
2019-05-21T12:25:22.330Z,97420.55
2019-05-21T12:27:50.698Z,97416.15
2019-05-21T12:30:19.679Z,97425.86
2019-05-21T12:32:47.981Z,97424.63
2019-05-21T12:35:16.449Z,97424.99
2019-05-21T12:37:44.773Z,97425.05
2019-05-21T12:40:14.010Z,97433.12
2019-05-21T12:42:42.337Z,97436.28
2019-05-21T12:45:10.903Z,97425.87
2019-05-21T12:47:39.672Z,97425.87
2019-05-21T12:50:09.695Z,97439.23
2019-05-21T12:52:38.017Z,97443.25
2019-05-21T12:55:08.053Z,97448.47
2019-05-21T12:57:36.692Z,97442.72
2019-05-21T13:00:08.819Z,97444.23
2019-05-21T13:02:37.368Z,97449.55
2019-05-21T13:05:10.898Z,97448.52
2019-05-21T13:07:37.580Z,97451.24
2019-05-21T13:10:09.690Z,97473.75
2019-05-21T13:12:38.065Z,97456.06
2019-05-21T13:15:07.933Z,97460.09
2019-05-21T13:17:36.634Z,97455.41
2019-05-21T13:20:09.785Z,97464.97
2019-05-21T13:22:38.463Z,97459.88
2019-05-21T13:25:07.625Z,97456.39
2019-05-21T13:27:36.186Z,97465.25
2019-05-21T13:30:07.146Z,97465.77
2019-05-21T13:32:35.461Z,97473.95
2019-05-21T13:35:05.730Z,97461.45
2019-05-21T13:37:34.757Z,97470.81
2019-05-21T13:40:04.681Z,97471.80
2019-05-21T13:42:32.997Z,97483.23
2019-05-21T13:45:01.306Z,97481.30
2019-05-21T13:47:29.619Z,97488.09
2019-05-21T13:49:58.290Z,97484.11
2019-05-21T13:52:28.761Z,97480.03
2019-05-21T13:54:56.724Z,97481.77
2019-05-21T13:57:25.026Z,97478.17
2019-05-21T13:59:53.766Z,97478.48
2019-05-21T14:02:22.269Z,97480.98
2019-05-21T14:04:50.605Z,97481.13
2019-05-21T14:07:18.922Z,97482.48
2019-05-21T14:09:47.319Z,97477.98
2019-05-21T14:12:15.989Z,97485.41
2019-05-21T14:14:44.321Z,97473.22
2019-05-21T14:17:13.158Z,97482.86
2019-05-21T14:19:41.634Z,97492.41
2019-05-21T14:22:10.114Z,97482.67
2019-05-21T14:24:39.267Z,97485.83
2019-05-21T14:27:08.291Z,97491.00
2019-05-21T14:29:36.658Z,97493.36
2019-05-21T14:32:05.189Z,97491.52
2019-05-21T14:34:33.489Z,97489.15
2019-05-21T14:37:01.995Z,97494.38
2019-05-21T14:39:30.272Z,97493.48
2019-05-21T14:41:58.642Z,97492.24
2019-05-21T14:44:27.300Z,97494.39
2019-05-21T14:46:55.666Z,97488.10
2019-05-21T14:49:24.680Z,97498.67
2019-05-21T14:51:53.430Z,97497.19
2019-05-21T14:54:26.559Z,97501.54
2019-05-21T14:56:51.814Z,97502.74
2019-05-21T14:59:20.140Z,97490.98
2019-05-21T15:01:48.835Z,97497.13
2019-05-21T15:04:17.243Z,97491.94
2019-05-21T15:06:45.625Z,97479.00
2019-05-21T15:09:13.988Z,97492.55
2019-05-21T15:11:42.395Z,97488.83
2019-05-21T15:14:10.696Z,97488.43
2019-05-21T15:16:39.344Z,97488.59
2019-05-21T15:19:07.651Z,97489.23
2019-05-21T15:21:37.595Z,97489.52
2019-05-21T15:24:06.413Z,97491.91
2019-05-21T15:26:34.964Z,97492.94
2019-05-21T15:29:03.646Z,97499.56
2019-05-21T15:31:31.937Z,97501.03
2019-05-21T15:34:00.366Z,97507.84
2019-05-21T15:36:28.762Z,97505.73
2019-05-21T15:38:57.061Z,97496.34
2019-05-21T15:41:25.707Z,97500.08
2019-05-21T15:43:54.087Z,97504.61
2019-05-21T15:46:22.424Z,97508.23
2019-05-21T15:48:50.900Z,97505.43
2019-05-21T15:51:19.647Z,97506.97
2019-05-21T15:53:48.035Z,97508.73
2019-05-21T15:56:16.474Z,97518.58
2019-05-21T15:58:45.063Z,97513.40
2019-05-21T16:01:13.368Z,97513.59
2019-05-21T16:03:41.754Z,97506.68
2019-05-21T16:06:10.128Z,97515.95
2019-05-21T16:08:38.525Z,97513.28
2019-05-21T16:11:07.828Z,97517.94
2019-05-21T16:13:36.518Z,97519.17
2019-05-21T16:16:05.385Z,97518.92
2019-05-21T16:18:33.749Z,97522.27
2019-05-21T16:21:02.438Z,97512.98
2019-05-21T16:23:30.820Z,97519.55
2019-05-21T16:25:59.164Z,97523.36
2019-05-21T16:28:27.435Z,97520.20
2019-05-21T16:30:56.424Z,97532.35
2019-05-21T16:33:24.815Z,97531.75
2019-05-21T16:35:53.263Z,97533.45
2019-05-21T16:38:21.675Z,97536.12
2019-05-21T16:40:49.965Z,97536.89
2019-05-21T16:43:18.766Z,97529.80
2019-05-21T16:45:47.066Z,97537.05
2019-05-21T16:48:15.438Z,97537.28
2019-05-21T16:50:43.788Z,97537.63
2019-05-21T16:53:12.439Z,97544.37
2019-05-21T16:55:40.821Z,97549.13
2019-05-21T16:58:09.549Z,97547.08
2019-05-21T17:00:38.136Z,97545.94
2019-05-21T17:03:06.517Z,97548.17
2019-05-21T17:05:34.958Z,97558.84
2019-05-21T17:08:03.495Z,97572.00
2019-05-21T17:10:31.822Z,97563.45
2019-05-21T17:13:00.181Z,97566.73
2019-05-21T17:15:28.485Z,97565.05
2019-05-21T17:17:57.532Z,97572.30
2019-05-21T17:20:25.897Z,97563.86
2019-05-21T17:22:54.207Z,97580.72
2019-05-21T17:25:24.214Z,97580.83
2019-05-21T17:27:52.709Z,97575.81
2019-05-21T17:30:21.069Z,97567.16
2019-05-21T17:32:49.364Z,97583.30
2019-05-21T17:35:17.842Z,97568.66
2019-05-21T17:37:46.143Z,97577.91
2019-05-21T17:40:14.620Z,97575.45
2019-05-21T17:42:43.388Z,97576.81
2019-05-21T17:45:11.953Z,97573.40
2019-05-21T17:47:40.254Z,97576.49
2019-05-21T17:50:09.198Z,97582.25
2019-05-21T17:52:37.517Z,97589.95
2019-05-21T17:55:08.852Z,97578.88
2019-05-21T17:57:38.324Z,97606.34
2019-05-21T18:00:08.862Z,97590.70
2019-05-21T18:02:37.602Z,97593.09
2019-05-21T18:05:08.648Z,97580.26
2019-05-21T18:07:37.533Z,97584.90
2019-05-21T18:10:07.863Z,97590.70
2019-05-21T18:12:36.491Z,97589.40
2019-05-21T18:15:07.621Z,97596.97
2019-05-21T18:17:37.200Z,97599.36
2019-05-21T18:20:09.354Z,97598.25
2019-05-21T18:22:39.764Z,97608.17
2019-05-21T18:25:09.231Z,97598.92
2019-05-21T18:27:37.592Z,97594.72
2019-05-21T18:30:07.420Z,97603.80
2019-05-21T18:32:36.484Z,97611.14
2019-05-21T18:35:08.184Z,97598.17
2019-05-21T18:37:37.894Z,97608.72
2019-05-21T18:40:08.449Z,97607.41
2019-05-21T18:42:36.808Z,97607.41
2019-05-21T18:45:06.965Z,97605.08
2019-05-21T18:47:35.263Z,97614.49
2019-05-21T18:50:07.364Z,97616.59
2019-05-21T18:52:35.731Z,97615.00
2019-05-21T18:55:07.791Z,97624.77
2019-05-21T18:57:36.537Z,97620.55
2019-05-21T19:00:09.849Z,97637.46
2019-05-21T19:02:38.231Z,97625.06
2019-05-21T19:05:07.177Z,97623.90
2019-05-21T19:07:35.629Z,97632.64
2019-05-21T19:10:09.169Z,97624.91
2019-05-21T19:12:38.828Z,97637.41
2019-05-21T19:15:08.416Z,97639.53
2019-05-21T19:17:36.766Z,97648.56
2019-05-21T19:20:07.294Z,97647.44
2019-05-21T19:22:36.221Z,97647.27
2019-05-21T19:25:06.580Z,97647.44
2019-05-21T19:27:35.237Z,97648.23
2019-05-21T19:30:05.499Z,97663.16
2019-05-21T19:32:33.877Z,97656.09
2019-05-21T19:35:02.303Z,97657.52
2019-05-21T19:37:30.580Z,97670.30
2019-05-21T19:39:58.905Z,97671.46
2019-05-21T19:42:27.373Z,97681.07
2019-05-21T19:44:56.053Z,97680.71
2019-05-21T19:47:24.419Z,97678.28
2019-05-21T19:49:52.728Z,97678.17
2019-05-21T19:52:21.119Z,97672.45
2019-05-21T19:54:49.575Z,97684.73
2019-05-21T19:57:18.005Z,97678.09
2019-05-21T19:59:46.390Z,97682.08
2019-05-21T20:02:16.261Z,97699.80
2019-05-21T20:04:46.223Z,97687.09
2019-05-21T20:07:18.022Z,97688.75
2019-05-21T20:09:46.355Z,97692.80
2019-05-21T20:12:15.608Z,97698.21
2019-05-21T20:14:44.617Z,97688.45
2019-05-21T20:17:14.677Z,97689.79
2019-05-21T20:19:44.187Z,97697.47
2019-05-21T20:22:12.555Z,97695.86
2019-05-21T20:24:40.946Z,97701.73
2019-05-21T20:27:09.882Z,97695.77
2019-05-21T20:29:38.719Z,97702.14
2019-05-21T20:32:08.727Z,97706.33
2019-05-21T20:34:37.499Z,97700.44
2019-05-21T20:37:07.715Z,97695.83
2019-05-21T20:39:38.888Z,97701.36
2019-05-21T20:42:09.010Z,97702.20
2019-05-21T20:44:37.304Z,97702.48
2019-05-21T20:47:06.875Z,97708.02
2019-05-21T20:49:35.813Z,97712.50
2019-05-21T20:52:18.065Z,97714.09
2019-05-21T20:54:36.386Z,97707.89
2019-05-21T20:57:06.676Z,97706.58
2019-05-21T20:59:35.066Z,97709.12
2019-05-21T21:02:08.607Z,97703.31
2019-05-21T21:04:35.200Z,97702.97
2019-05-21T21:07:03.747Z,97703.65
2019-05-21T21:09:32.697Z,97699.77
2019-05-21T21:12:01.173Z,97705.36
2019-05-21T21:14:30.327Z,97707.15
2019-05-21T21:16:59.688Z,97697.70
2019-05-21T21:19:28.328Z,97705.39
2019-05-21T21:21:56.737Z,97701.02
2019-05-21T21:24:25.035Z,97708.02
2019-05-21T21:26:53.603Z,97707.77
2019-05-21T21:29:21.982Z,97703.34
2019-05-21T21:31:50.569Z,97705.11
2019-05-21T21:34:19.327Z,97707.51
2019-05-21T21:36:48.262Z,97713.27
2019-05-21T21:39:16.951Z,97710.62
2019-05-21T21:41:45.829Z,97715.30
2019-05-21T21:44:14.222Z,97718.31
2019-05-21T21:46:42.521Z,97715.70
2019-05-21T21:49:12.557Z,97711.92
2019-05-21T21:51:41.190Z,97714.89
2019-05-21T21:54:09.764Z,97708.98
2019-05-21T21:56:38.123Z,97718.55
2019-05-21T21:59:06.438Z,97715.22
2019-05-21T22:01:54.575Z,97712.97
2019-05-21T22:04:25.950Z,97719.67
2019-05-21T22:06:55.870Z,97723.33
2019-05-21T22:09:26.181Z,97712.26
2019-05-21T22:11:55.738Z,97719.84
2019-05-21T22:14:25.635Z,97720.61
2019-05-21T22:16:54.697Z,97712.19
2019-05-21T22:19:23.636Z,97707.65
2019-05-21T22:21:52.074Z,97710.52
2019-05-21T22:24:20.771Z,97706.03
2019-05-21T22:26:49.386Z,97699.75
2019-05-21T22:29:18.006Z,97703.09
2019-05-21T22:31:47.045Z,97707.00
2019-05-21T22:34:15.499Z,97703.78
2019-05-21T22:36:43.866Z,97705.28
2019-05-21T22:39:20.158Z,97699.23
2019-05-21T22:41:48.529Z,97697.94
2019-05-21T22:44:16.895Z,97702.20
2019-05-21T22:46:45.213Z,97705.06
2019-05-21T22:49:13.506Z,97702.47
2019-05-21T22:51:41.886Z,97717.22
2019-05-21T22:54:10.252Z,97702.23
2019-05-21T22:56:38.567Z,97710.95
2019-05-21T22:59:06.935Z,97708.78
2019-05-21T23:01:36.899Z,97703.59
2019-05-21T23:04:05.995Z,97705.20
2019-05-21T23:06:34.731Z,97707.53
2019-05-21T23:09:03.894Z,97705.53
2019-05-21T23:11:33.258Z,97709.36
2019-05-21T23:14:01.925Z,97709.30
2019-05-21T23:16:31.158Z,97706.58
2019-05-21T23:18:59.818Z,97709.98
2019-05-21T23:21:29.827Z,97703.12
2019-05-21T23:23:59.056Z,97712.58
2019-05-21T23:26:28.040Z,97708.61
2019-05-21T23:28:56.803Z,97707.77
2019-05-21T23:31:26.122Z,97701.94
2019-05-21T23:33:56.231Z,97704.59
2019-05-21T23:36:24.937Z,97703.81
2019-05-21T23:38:53.654Z,97709.41
2019-05-21T23:41:21.947Z,97713.52
2019-05-21T23:43:50.681Z,97709.39
2019-05-21T23:46:19.732Z,97705.22
2019-05-21T23:48:49.099Z,97706.11
2019-05-21T23:51:17.402Z,97709.80
2019-05-21T23:53:45.811Z,97714.84
2019-05-21T23:56:14.446Z,97718.31
2019-05-21T23:58:43.433Z,97716.29
